sensor_id;sensor_type;location;lat;lon;timestamp;P1;durP1;ratioP1;P2;durP2;ratioP2
928;SDS011;451;47.988;7.842;2023-04-24T00:02:01;1.13;;;1.00;;
928;SDS011;451;47.988;7.842;2023-04-24T00:11:06;1.23;;;1.17;;
928;SDS011;451;47.988;7.842;2023-04-24T00:20:09;1.10;;;1.00;;
928;SDS011;451;47.988;7.842;2023-04-24T00:29:14;0.90;;;0.90;;
928;SDS011;451;47.988;7.842;2023-04-24T00:38:20;0.80;;;0.80;;
928;SDS011;451;47.988;7.842;2023-04-24T00:47:25;0.90;;;0.90;;
928;SDS011;451;47.988;7.842;2023-04-24T00:56:29;1.93;;;1.10;;
928;SDS011;451;47.988;7.842;2023-04-24T01:05:34;1.10;;;1.00;;
928;SDS011;451;47.988;7.842;2023-04-24T01:14:37;0.70;;;0.70;;
928;SDS011;451;47.988;7.842;2023-04-24T01:23:42;1.13;;;0.90;;
928;SDS011;451;47.988;7.842;2023-04-24T01:32:45;1.57;;;1.10;;
928;SDS011;451;47.988;7.842;2023-04-24T01:41:50;1.00;;;0.90;;
928;SDS011;451;47.988;7.842;2023-04-24T01:50:54;1.90;;;0.93;;
928;SDS011;451;47.988;7.842;2023-04-24T01:59:59;2.53;;;1.03;;
928;SDS011;451;47.988;7.842;2023-04-24T02:09:04;1.70;;;1.03;;
928;SDS011;451;47.988;7.842;2023-04-24T02:18:08;4.33;;;1.70;;
928;SDS011;451;47.988;7.842;2023-04-24T02:27:12;1.33;;;1.23;;
928;SDS011;451;47.988;7.842;2023-04-24T02:36:17;2.60;;;1.10;;
928;SDS011;451;47.988;7.842;2023-04-24T02:45:20;1.87;;;1.10;;
928;SDS011;451;47.988;7.842;2023-04-24T02:54:25;1.10;;;1.03;;
928;SDS011;451;47.988;7.842;2023-04-24T03:03:28;1.83;;;1.03;;
928;SDS011;451;47.988;7.842;2023-04-24T03:12:33;1.90;;;0.80;;
928;SDS011;451;47.988;7.842;2023-04-24T03:21:37;1.20;;;1.20;;
928;SDS011;451;47.988;7.842;2023-04-24T03:30:44;3.10;;;1.40;;
928;SDS011;451;47.988;7.842;2023-04-24T03:39:48;1.43;;;1.10;;
928;SDS011;451;47.988;7.842;2023-04-24T03:48:57;1.20;;;1.10;;
928;SDS011;451;47.988;7.842;2023-04-24T03:58:05;1.63;;;1.23;;
928;SDS011;451;47.988;7.842;2023-04-24T04:07:10;1.20;;;1.20;;
928;SDS011;451;47.988;7.842;2023-04-24T04:16:14;2.20;;;1.87;;
928;SDS011;451;47.988;7.842;2023-04-24T04:25:21;2.00;;;1.90;;
928;SDS011;451;47.988;7.842;2023-04-24T04:34:24;1.87;;;1.67;;
928;SDS011;451;47.988;7.842;2023-04-24T04:43:29;1.90;;;1.80;;
928;SDS011;451;47.988;7.842;2023-04-24T04:52:34;1.67;;;1.67;;
928;SDS011;451;47.988;7.842;2023-04-24T05:01:52;1.97;;;1.80;;
928;SDS011;451;47.988;7.842;2023-04-24T05:10:56;2.10;;;2.00;;
928;SDS011;451;47.988;7.842;2023-04-24T05:20:04;3.87;;;2.40;;
928;SDS011;451;47.988;7.842;2023-04-24T05:29:09;2.50;;;2.30;;
928;SDS011;451;47.988;7.842;2023-04-24T05:38:16;4.80;;;2.73;;
928;SDS011;451;47.988;7.842;2023-04-24T05:47:21;2.73;;;2.53;;
928;SDS011;451;47.988;7.842;2023-04-24T05:56:27;3.10;;;2.90;;
928;SDS011;451;47.988;7.842;2023-04-24T06:05:32;3.50;;;3.30;;
928;SDS011;451;47.988;7.842;2023-04-24T06:14:39;3.17;;;2.97;;
928;SDS011;451;47.988;7.842;2023-04-24T06:24:03;3.20;;;3.00;;
928;SDS011;451;47.988;7.842;2023-04-24T06:33:08;3.13;;;2.83;;
928;SDS011;451;47.988;7.842;2023-04-24T06:42:12;3.53;;;3.20;;
928;SDS011;451;47.988;7.842;2023-04-24T06:51:19;3.97;;;3.67;;
928;SDS011;451;47.988;7.842;2023-04-24T07:00:23;3.13;;;2.80;;
928;SDS011;451;47.988;7.842;2023-04-24T07:09:28;2.80;;;2.50;;
928;SDS011;451;47.988;7.842;2023-04-24T07:18:31;2.63;;;2.53;;
928;SDS011;451;47.988;7.842;2023-04-24T07:27:36;2.70;;;2.50;;
928;SDS011;451;47.988;7.842;2023-04-24T07:36:40;2.33;;;2.23;;
928;SDS011;451;47.988;7.842;2023-04-24T07:45:45;2.83;;;2.63;;
928;SDS011;451;47.988;7.842;2023-04-24T07:54:48;2.67;;;2.47;;
928;SDS011;451;47.988;7.842;2023-04-24T08:03:53;4.97;;;4.13;;
928;SDS011;451;47.988;7.842;2023-04-24T08:12:56;3.40;;;3.10;;
928;SDS011;451;47.988;7.842;2023-04-24T08:22:01;3.83;;;3.50;;
928;SDS011;451;47.988;7.842;2023-04-24T08:31:05;3.20;;;2.97;;
928;SDS011;451;47.988;7.842;2023-04-24T08:40:12;3.27;;;3.07;;
928;SDS011;451;47.988;7.842;2023-04-24T08:49:17;2.53;;;2.43;;
928;SDS011;451;47.988;7.842;2023-04-24T08:58:21;3.63;;;2.43;;
928;SDS011;451;47.988;7.842;2023-04-24T09:07:27;2.50;;;2.30;;
928;SDS011;451;47.988;7.842;2023-04-24T09:16:36;2.30;;;2.20;;
928;SDS011;451;47.988;7.842;2023-04-24T09:25:39;4.13;;;2.50;;
928;SDS011;451;47.988;7.842;2023-04-24T09:34:44;2.50;;;2.30;;
928;SDS011;451;47.988;7.842;2023-04-24T09:43:53;2.43;;;2.23;;
928;SDS011;451;47.988;7.842;2023-04-24T09:52:59;2.00;;;1.90;;
928;SDS011;451;47.988;7.842;2023-04-24T10:02:06;2.33;;;2.23;;
928;SDS011;451;47.988;7.842;2023-04-24T10:11:21;2.47;;;1.97;;
928;SDS011;451;47.988;7.842;2023-04-24T10:20:25;1.80;;;1.70;;
928;SDS011;451;47.988;7.842;2023-04-24T10:29:31;1.83;;;1.67;;
928;SDS011;451;47.988;7.842;2023-04-24T10:38:38;1.50;;;1.40;;
928;SDS011;451;47.988;7.842;2023-04-24T10:47:54;1.80;;;1.70;;
928;SDS011;451;47.988;7.842;2023-04-24T11:06:31;2.43;;;2.30;;
928;SDS011;451;47.988;7.842;2023-04-24T11:15:37;2.27;;;2.17;;
928;SDS011;451;47.988;7.842;2023-04-24T11:24:48;2.50;;;2.30;;
928;SDS011;451;47.988;7.842;2023-04-24T11:34:05;1.93;;;1.80;;
928;SDS011;451;47.988;7.842;2023-04-24T11:43:10;2.10;;;2.00;;
928;SDS011;451;47.988;7.842;2023-04-24T11:52:16;2.17;;;2.07;;
928;SDS011;451;47.988;7.842;2023-04-24T12:01:21;2.10;;;2.00;;
928;SDS011;451;47.988;7.842;2023-04-24T12:10:25;2.23;;;2.03;;
928;SDS011;451;47.988;7.842;2023-04-24T12:19:31;2.00;;;1.90;;
928;SDS011;451;47.988;7.842;2023-04-24T12:28:34;3.37;;;2.57;;
928;SDS011;451;47.988;7.842;2023-04-24T12:37:41;2.27;;;2.13;;
928;SDS011;451;47.988;7.842;2023-04-24T12:46:45;1.80;;;1.70;;
928;SDS011;451;47.988;7.842;2023-04-24T12:55:49;1.90;;;1.80;;
928;SDS011;451;47.988;7.842;2023-04-24T13:04:54;2.87;;;2.67;;
928;SDS011;451;47.988;7.842;2023-04-24T13:13:58;2.23;;;2.10;;
928;SDS011;451;47.988;7.842;2023-04-24T13:23:01;2.17;;;1.90;;
928;SDS011;451;47.988;7.842;2023-04-24T13:32:06;2.77;;;2.67;;
928;SDS011;451;47.988;7.842;2023-04-24T13:41:10;2.63;;;2.43;;
928;SDS011;451;47.988;7.842;2023-04-24T13:50:14;2.60;;;2.40;;
928;SDS011;451;47.988;7.842;2023-04-24T13:59:18;2.80;;;2.70;;
928;SDS011;451;47.988;7.842;2023-04-24T14:08:24;2.90;;;2.70;;
928;SDS011;451;47.988;7.842;2023-04-24T14:17:27;2.00;;;1.90;;
928;SDS011;451;47.988;7.842;2023-04-24T14:26:31;2.37;;;2.20;;
928;SDS011;451;47.988;7.842;2023-04-24T14:35:35;2.17;;;2.00;;
928;SDS011;451;47.988;7.842;2023-04-24T14:44:39;2.67;;;2.57;;
928;SDS011;451;47.988;7.842;2023-04-24T14:53:42;3.70;;;3.07;;
928;SDS011;451;47.988;7.842;2023-04-24T15:02:49;3.63;;;3.33;;
928;SDS011;451;47.988;7.842;2023-04-24T15:11:54;3.93;;;3.03;;
928;SDS011;451;47.988;7.842;2023-04-24T15:20:59;4.00;;;3.60;;
928;SDS011;451;47.988;7.842;2023-04-24T15:30:04;3.40;;;3.17;;
928;SDS011;451;47.988;7.842;2023-04-24T15:39:12;3.10;;;2.90;;
928;SDS011;451;47.988;7.842;2023-04-24T15:48:15;3.87;;;3.57;;
928;SDS011;451;47.988;7.842;2023-04-24T15:57:22;4.20;;;3.90;;
928;SDS011;451;47.988;7.842;2023-04-24T16:06:25;3.50;;;3.30;;
928;SDS011;451;47.988;7.842;2023-04-24T16:15:30;3.63;;;3.43;;
928;SDS011;451;47.988;7.842;2023-04-24T16:24:33;3.90;;;3.60;;
928;SDS011;451;47.988;7.842;2023-04-24T16:33:38;4.30;;;3.87;;
928;SDS011;451;47.988;7.842;2023-04-24T16:42:49;4.47;;;4.07;;
928;SDS011;451;47.988;7.842;2023-04-24T16:51:56;3.40;;;3.10;;
928;SDS011;451;47.988;7.842;2023-04-24T17:00:59;3.80;;;3.50;;
928;SDS011;451;47.988;7.842;2023-04-24T17:10:04;5.57;;;3.90;;
928;SDS011;451;47.988;7.842;2023-04-24T17:19:10;3.63;;;3.43;;
928;SDS011;451;47.988;7.842;2023-04-24T17:28:19;4.33;;;3.80;;
928;SDS011;451;47.988;7.842;2023-04-24T17:37:26;5.00;;;4.30;;
928;SDS011;451;47.988;7.842;2023-04-24T17:46:31;5.63;;;3.87;;
928;SDS011;451;47.988;7.842;2023-04-24T17:55:34;6.30;;;4.50;;
928;SDS011;451;47.988;7.842;2023-04-24T18:04:38;6.60;;;4.00;;
928;SDS011;451;47.988;7.842;2023-04-24T18:13:43;4.03;;;3.50;;
928;SDS011;451;47.988;7.842;2023-04-24T18:22:48;3.73;;;3.43;;
928;SDS011;451;47.988;7.842;2023-04-24T18:31:51;6.80;;;4.10;;
928;SDS011;451;47.988;7.842;2023-04-24T18:40:55;4.03;;;3.73;;
928;SDS011;451;47.988;7.842;2023-04-24T18:49:58;10.83;;;6.53;;
928;SDS011;451;47.988;7.842;2023-04-24T18:59:03;3.43;;;3.03;;
928;SDS011;451;47.988;7.842;2023-04-24T19:08:09;5.57;;;3.63;;
928;SDS011;451;47.988;7.842;2023-04-24T19:17:15;4.33;;;3.93;;
928;SDS011;451;47.988;7.842;2023-04-24T19:26:23;7.10;;;3.80;;
928;SDS011;451;47.988;7.842;2023-04-24T19:35:30;4.03;;;3.73;;
928;SDS011;451;47.988;7.842;2023-04-24T19:44:36;3.73;;;3.43;;
928;SDS011;451;47.988;7.842;2023-04-24T19:53:40;4.17;;;3.87;;
928;SDS011;451;47.988;7.842;2023-04-24T20:02:44;4.30;;;3.40;;
928;SDS011;451;47.988;7.842;2023-04-24T20:11:48;5.87;;;3.60;;
928;SDS011;451;47.988;7.842;2023-04-24T20:20:53;4.57;;;4.17;;
928;SDS011;451;47.988;7.842;2023-04-24T20:30:00;3.97;;;3.57;;
928;SDS011;451;47.988;7.842;2023-04-24T20:39:03;4.00;;;3.67;;
928;SDS011;451;47.988;7.842;2023-04-24T20:48:08;3.70;;;3.40;;
928;SDS011;451;47.988;7.842;2023-04-24T20:57:17;8.10;;;4.97;;
928;SDS011;451;47.988;7.842;2023-04-24T21:06:22;5.53;;;4.13;;
928;SDS011;451;47.988;7.842;2023-04-24T21:15:25;9.30;;;5.37;;
928;SDS011;451;47.988;7.842;2023-04-24T21:24:30;4.37;;;3.97;;
928;SDS011;451;47.988;7.842;2023-04-24T21:33:33;3.50;;;3.20;;
928;SDS011;451;47.988;7.842;2023-04-24T21:42:37;4.50;;;4.20;;
928;SDS011;451;47.988;7.842;2023-04-24T21:51:41;4.40;;;4.00;;
928;SDS011;451;47.988;7.842;2023-04-24T22:00:46;5.43;;;4.93;;
928;SDS011;451;47.988;7.842;2023-04-24T22:09:49;4.30;;;4.00;;
928;SDS011;451;47.988;7.842;2023-04-24T22:18:53;6.43;;;4.50;;
928;SDS011;451;47.988;7.842;2023-04-24T22:27:56;3.90;;;3.40;;
928;SDS011;451;47.988;7.842;2023-04-24T22:37:00;3.70;;;3.50;;
928;SDS011;451;47.988;7.842;2023-04-24T22:46:03;3.90;;;3.57;;
928;SDS011;451;47.988;7.842;2023-04-24T22:55:09;3.37;;;3.10;;
928;SDS011;451;47.988;7.842;2023-04-24T23:04:12;3.10;;;2.80;;
928;SDS011;451;47.988;7.842;2023-04-24T23:13:16;3.43;;;3.13;;
928;SDS011;451;47.988;7.842;2023-04-24T23:22:20;3.90;;;3.50;;
928;SDS011;451;47.988;7.842;2023-04-24T23:31:27;3.77;;;3.47;;
928;SDS011;451;47.988;7.842;2023-04-24T23:40:30;4.00;;;3.70;;
928;SDS011;451;47.988;7.842;2023-04-24T23:49:35;5.23;;;3.73;;
928;SDS011;451;47.988;7.842;2023-04-24T23:58:38;4.20;;;3.80;;
